Latest Weather Observations for Bunbury

IDW60801

Issued at 8:32 pm WST Friday 22 May 2015 (issued every 30 minutes, with the page automatically refreshed every 10 minutes)

About weather observations | Map of weather stations | Latest weather observations for WA | Other Formats
Station Details ID: 009965 Name: BUNBURY Lat: -33.36 Lon: 115.64 Height: 5.2 m
Data from the previous 72 hours. | See also: Recent months at Bunbury
Date/Time
WST
Temp
°C
App
Temp
°C
Dew
Point
Rel
Hum
%
Delta-T
°C
Wind Press
QNH
hPa
Press
MSL
hPa
Rain
since 9 am
mm
Dir
 
Spd
km/h
Gust
km/h
Spd
kts
Gust
kts
22/08:30pm 10.0 10.0 9.7 98 0.1 CALM 0 0 0 0 1018.6 1018.5 0.0
22/08:00pm 10.6 10.7 10.3 98 0.2 CALM 0 0 0 0 1018.7 1018.6 0.0
22/07:30pm 11.7 12.1 11.1 96 0.3 CALM 0 0 0 0 1018.4 1018.3 0.0
22/07:00pm 12.1 12.5 11.2 94 0.5 CALM 0 0 0 0 1018.2 1018.1 0.0
22/06:30pm 12.8 13.1 11.0 89 0.9 CALM 0 2 0 1 1018.1 1018.0 0.0
22/06:00pm 13.3 13.3 9.9 80 1.7 CALM 0 0 0 0 1017.9 1017.8 0.0
22/05:30pm 15.3 15.1 10.5 73 2.5 SW 2 4 1 2 1018.0 1017.9 0.0
22/05:00pm 16.9 16.0 10.7 67 3.3 SW 6 7 3 4 1017.9 1017.8 0.0
22/04:30pm 18.5 17.5 10.3 59 4.4 W 6 9 3 5 1017.9 1017.8 0.0
22/04:00pm 18.6 17.5 9.9 57 4.6 NNW 6 7 3 4 1017.9 1017.8 0.0
22/03:30pm 18.5 17.2 10.1 58 4.5 NNW 7 11 4 6 1017.8 1017.7 0.0
22/03:00pm 19.6 17.8 9.5 52 5.3 N 9 11 5 6 1017.9 1017.8 0.0
22/02:30pm 19.8 18.6 9.4 51 5.5 NNW 6 9 3 5 1017.7 1017.6 0.0
22/02:00pm 18.9 17.5 8.8 52 5.3 NNE 6 9 3 5 1017.9 1017.8 0.0
22/01:30pm 19.9 19.1 9.8 52 5.4 ENE 4 11 2 6 1018.1 1018.0 0.0
22/01:00pm 19.3 17.9 9.5 53 5.2 ENE 7 11 4 6 1018.4 1018.3 0.0
22/12:30pm 19.0 17.1 8.9 52 5.3 NE 9 15 5 8 1018.9 1018.8 0.0
22/12:00pm 18.8 16.9 9.0 53 5.1 NE 9 15 5 8 1019.4 1019.3 0.0
22/11:30am 18.6 15.9 8.8 53 5.1 ENE 13 19 7 10 1020.0 1019.9 0.0
22/11:00am 18.3 16.4 9.1 55 4.8 NE 9 17 5 9 1020.5 1020.4 0.0
22/10:30am 17.2 14.9 9.1 59 4.2 E 11 15 6 8 1021.0 1020.9 0.0
22/10:00am 16.5 14.2 9.0 61 3.9 ENE 11 17 6 9 1021.1 1021.0 0.0
22/09:30am 15.8 13.8 8.5 62 3.7 ENE 9 15 5 8 1021.3 1021.2 0.0
22/09:00am 14.8 13.7 8.5 66 3.2 ENE 4 9 2 5 1021.5 1021.4 0.0
22/08:30am 13.0 11.9 8.5 74 2.2 E 4 6 2 3 1021.7 1021.6 0.0
22/08:00am 10.4 10.0 8.3 87 1.0 CALM 0 2 0 1 1021.6 1021.5 0.0
22/07:30am 9.2 7.8 7.2 87 0.9 E 4 7 2 4 1021.6 1021.5 0.0
22/07:00am 9.9 8.5 7.3 84 1.2 ENE 4 6 2 3 1021.4 1021.3 0.0
22/06:30am 10.0 8.2 7.1 82 1.4 E 6 9 3 5 1021.4 1021.3 0.0
22/06:00am 10.5 8.7 7.2 80 1.6 E 6 7 3 4 1021.4 1021.3 0.0
22/05:30am 10.7 8.9 7.2 79 1.7 E 6 9 3 5 1021.5 1021.4 0.0
22/05:00am 10.1 7.9 6.4 78 1.7 E 7 9 4 5 1021.5 1021.4 0.0
22/04:30am 10.6 8.0 6.2 74 2.0 ENE 9 13 5 7 1021.6 1021.5 0.0
22/04:00am 11.1 8.5 6.3 72 2.2 E 9 17 5 9 1021.6 1021.5 0.0
22/03:30am 11.9 8.6 6.4 69 2.6 ENE 13 19 7 10 1021.8 1021.7 0.0
22/03:00am 11.8 8.4 6.1 68 2.7 ENE 13 19 7 10 1022.2 1022.1 0.0
22/02:30am 10.9 8.3 6.1 72 2.2 E 9 13 5 7 1022.4 1022.3 0.0
22/02:00am 11.7 9.1 6.2 69 2.6 E 9 15 5 8 1022.7 1022.6 0.0
22/01:30am 12.1 9.9 6.4 68 2.7 ENE 7 11 4 6 1023.0 1022.9 0.0
22/01:00am 12.0 9.5 6.5 69 2.6 ENE 9 15 5 8 1023.1 1023.0 0.0
22/12:30am 12.3 9.9 6.8 69 2.6 E 9 15 5 8 1023.2 1023.1 0.0
22/12:00am 12.5 9.7 7.0 69 2.6 E 11 19 6 10 1023.3 1023.2 0.0
 
Date/Time
WST
Temp
°C
App
Temp
°C
Dew
Point
Rel
Hum
%
Delta-T
°C
Wind Press
QNH
hPa
Press
MSL
hPa
Rain
since 9 am
mm
Dir
 
Spd
km/h
Gust
km/h
Spd
kts
Gust
kts
21/11:30pm 12.0 9.8 7.9 76 2.0 E 9 13 5 7 1023.5 1023.4 0.0
21/11:00pm 12.4 10.3 6.0 65 3.0 ESE 6 9 3 5 1023.8 1023.7 0.0
21/10:30pm 12.8 9.8 5.9 63 3.2 E 11 13 6 7 1024.0 1023.9 0.0
21/10:00pm 11.4 9.1 5.9 69 2.5 E 7 9 4 5 1024.2 1024.1 0.0
21/09:30pm 10.9 8.7 6.3 73 2.2 E 7 9 4 5 1024.2 1024.1 0.0
21/09:00pm 9.5 7.8 6.0 79 1.6 E 4 6 2 3 1024.2 1024.1 0.0
21/08:30pm 10.5 8.8 6.1 74 2.0 ESE 4 6 2 3 1024.1 1024.0 0.0
21/08:00pm 11.6 9.5 6.5 71 2.4 ESE 7 9 4 5 1024.0 1023.9 0.0
21/07:30pm 12.4 10.3 6.7 68 2.7 ESE 7 11 4 6 1024.2 1024.1 0.0
21/07:00pm 12.6 10.4 6.4 66 2.9 ESE 7 7 4 4 1024.2 1024.1 0.0
21/06:30pm 13.5 11.5 6.4 62 3.4 ESE 6 7 3 4 1024.1 1024.0 0.0
21/06:00pm 14.7 13.1 6.5 58 3.9 ESE 4 7 2 4 1024.1 1024.0 0.0
21/05:30pm 15.6 13.4 6.3 54 4.5 E 7 9 4 5 1023.9 1023.8 0.0
21/05:00pm 16.9 14.3 6.1 49 5.2 ENE 9 17 5 9 1024.0 1023.9 0.0
21/04:30pm 17.7 14.8 6.3 47 5.6 ENE 11 17 6 9 1024.1 1024.0 0.0
21/04:00pm 18.0 15.0 6.2 46 5.8 ENE 11 17 6 9 1024.2 1024.1 0.0
21/03:30pm 18.4 16.0 6.9 47 5.8 ENE 9 19 5 10 1024.4 1024.3 0.0
21/03:00pm 18.3 15.3 6.2 45 5.9 ENE 11 19 6 10 1024.5 1024.4 0.0
21/02:30pm 18.4 15.1 6.6 46 5.9 NE 13 20 7 11 1024.7 1024.6 0.0
21/02:00pm 18.6 15.3 6.4 45 6.0 NE 13 20 7 11 1024.8 1024.7 0.0
21/01:30pm 18.1 14.4 6.3 46 5.8 ENE 15 22 8 12 1025.2 1025.1 0.0
21/01:00pm 18.5 15.3 7.0 47 5.7 ENE 13 22 7 12 1025.4 1025.3 0.0
21/12:30pm 18.1 14.6 7.2 49 5.5 ENE 15 20 8 11 1025.8 1025.7 0.0
21/12:00pm 17.4 13.3 6.3 48 5.4 ENE 17 24 9 13 1026.4 1026.3 0.0
21/11:30am 17.2 13.6 6.7 50 5.2 ENE 15 22 8 12 1027.0 1026.9 0.0
21/11:00am 16.0 11.6 6.4 53 4.6 NE 19 30 10 16 1027.6 1027.5 0.0
21/10:30am 15.2 10.1 6.0 54 4.4 ENE 22 30 12 16 1027.9 1027.9 0.0
21/10:00am 14.7 10.0 6.0 56 4.1 ENE 20 30 11 16 1028.3 1028.3 0.0
21/09:30am 13.7 10.2 7.2 65 3.2 E 15 24 8 13 1028.6 1028.6 0.0
21/09:00am 12.5 9.4 7.2 70 2.5 ENE 13 20 7 11 1028.8 1028.8 0.0
21/08:30am 11.4 9.1 7.5 77 1.9 E 9 13 5 7 1029.1 1029.1 0.0
21/08:00am 9.8 7.4 6.9 82 1.4 E 9 13 5 7 1029.2 1029.2 0.0
21/07:30am 7.9 5.4 6.4 90 0.7 E 9 13 5 7 1029.1 1029.1 0.0
21/07:00am 7.2 5.1 6.5 95 0.3 E 7 9 4 5 1029.0 1029.0 0.0
21/06:30am 6.6 4.6 6.2 97 0.2 E 6 11 3 6 1028.8 1028.8 0.0
21/06:00am 7.1 5.2 6.8 98 0.1 ESE 6 6 3 3 1028.7 1028.7 0.0
21/05:30am 7.2 5.3 6.9 98 0.1 ESE 6 6 3 3 1028.5 1028.5 0.0
21/05:00am 7.1 5.0 6.8 98 0.1 ESE 7 9 4 5 1028.4 1028.4 0.0
21/04:30am 7.4 5.4 7.1 98 0.1 SE 7 9 4 5 1028.5 1028.5 0.0
21/04:00am 7.5 5.5 7.1 97 0.2 SE 7 9 4 5 1028.4 1028.4 0.0
21/03:30am 7.7 5.7 7.3 97 0.2 SE 7 11 4 6 1028.6 1028.6 0.0
21/03:00am 7.8 6.1 7.4 97 0.2 ESE 6 9 3 5 1028.9 1028.9 0.0
21/02:30am 8.2 6.0 7.8 97 0.2 SE 9 13 5 7 1029.0 1029.0 0.0
21/02:00am 8.2 6.3 7.4 95 0.4 ESE 7 11 4 6 1029.3 1029.3 0.0
21/01:30am 8.4 6.1 7.6 95 0.4 SE 9 11 5 6 1029.4 1029.4 0.0
21/01:00am 9.0 6.8 7.8 92 0.6 SE 9 11 5 6 1029.6 1029.6 0.0
21/12:30am 9.8 7.7 8.2 90 0.8 SE 9 13 5 7 1029.8 1029.8 0.0
21/12:00am 9.4 7.5 7.7 89 0.8 SE 7 11 4 6 1030.0 1030.0 0.0
 
Date/Time
WST
Temp
°C
App
Temp
°C
Dew
Point
Rel
Hum
%
Delta-T
°C
Wind Press
QNH
hPa
Press
MSL
hPa
Rain
since 9 am
mm
Dir
 
Spd
km/h
Gust
km/h
Spd
kts
Gust
kts
20/11:30pm 9.3 7.6 7.6 89 0.8 SE 6 9 3 5 1030.1 1030.1 0.0
20/11:00pm 9.3 7.4 7.6 89 0.8 SE 7 9 4 5 1030.1 1030.1 0.0
20/10:30pm 9.5 7.8 7.4 87 1.0 SE 6 9 3 5 1030.1 1030.1 0.0
20/10:00pm 9.7 7.8 7.5 86 1.0 SE 7 7 4 4 1030.2 1030.2 0.0
20/09:30pm 10.5 8.6 7.7 83 1.3 SE 7 11 4 6 1030.1 1030.1 0.0
20/09:00pm 11.0 9.2 7.9 81 1.5 SE 7 11 4 6 1030.0 1030.0 0.0
20/08:30pm 11.7 9.9 7.8 77 1.9 SE 7 11 4 6 1030.1 1030.1 0.0
20/08:00pm 12.5 10.7 7.8 73 2.3 SE 7 9 4 5 1030.0 1030.0 0.0
20/07:30pm 12.9 11.1 7.8 71 2.5 SE 7 9 4 5 1030.1 1030.1 0.0
20/07:00pm 12.7 11.1 7.8 72 2.4 SE 6 7 3 4 1030.1 1030.1 0.0
20/06:30pm 12.8 11.1 7.7 71 2.5 SE 6 7 3 4 1030.0 1030.0 0.0
20/06:00pm 13.3 11.4 7.5 68 2.8 ESE 7 9 4 5 1029.6 1029.6 0.0
20/05:30pm 14.2 11.9 7.3 63 3.4 ESE 9 13 5 7 1029.3 1029.3 0.0
20/05:00pm 14.7 12.4 7.3 61 3.6 ESE 9 15 5 8 1029.1 1029.1 0.0
20/04:30pm 15.5 12.3 7.0 57 4.2 SE 13 19 7 10 1029.0 1029.0 0.0
20/04:00pm 16.3 12.7 6.7 53 4.7 ENE 15 19 8 10 1029.2 1029.2 0.0
20/03:30pm 15.6 12.0 6.6 55 4.4 ENE 15 20 8 11 1029.2 1029.2 0.0
20/03:00pm 17.0 13.5 7.4 53 4.8 E 15 26 8 14 1029.2 1029.2 0.0
20/02:30pm 16.4 11.9 6.0 50 5.0 ESE 19 30 10 16 1029.2 1029.2 0.0
20/02:00pm 15.7 11.8 7.2 57 4.2 E 17 24 9 13 1029.5 1029.5 0.0
20/01:30pm 15.7 11.1 6.7 55 4.4 E 20 30 11 16 1029.6 1029.6 0.0
20/01:00pm 15.0 10.7 6.8 58 4.0 E 19 26 10 14 1030.0 1030.0 0.0
20/12:30pm 15.9 12.2 7.9 59 4.0 E 17 26 9 14 1030.4 1030.4 0.0
20/12:00pm 15.2 11.2 8.2 63 3.5 ENE 19 24 10 13 1030.9 1030.9 0.0
20/11:30am 14.9 11.3 8.2 64 3.4 ENE 17 24 9 13 1031.4 1031.4 0.0
20/11:00am 14.3 10.7 8.3 67 3.0 E 17 26 9 14 1031.7 1031.7 0.0
20/10:30am 13.7 10.9 8.5 71 2.6 E 13 19 7 10 1031.9 1031.9 0.0
20/10:00am 13.2 10.5 9.1 76 2.1 E 13 17 7 9 1031.9 1031.9 0.0
20/09:30am 12.3 10.3 8.6 78 1.8 ENE 9 15 5 8 1031.9 1031.9 0.0
20/09:00am 11.4 9.7 8.4 82 1.5 E 7 15 4 8 1031.8 1031.8 0.0
20/08:30am 10.0 8.8 8.1 88 0.9 ESE 4 7 2 4 1031.7 1031.7 0.0
20/08:00am 8.1 6.1 7.3 95 0.4 ESE 7 11 4 6 1031.5 1031.5 0.0
20/07:30am 6.0 3.9 5.7 98 0.1 SE 6 7 3 4 1031.1 1031.1 0.0
20/07:00am 5.9 3.6 5.5 97 0.2 SE 7 9 4 5 1030.8 1030.8 0.0
20/06:30am 6.6 4.0 6.2 97 0.2 SE 9 11 5 6 1030.6 1030.6 0.0
20/06:00am 5.8 3.6 5.4 97 0.2 SE 6 9 3 5 1030.4 1030.4 0.0
20/05:30am 6.3 4.2 5.7 96 0.3 SE 6 9 3 5 1030.3 1030.3 0.0
20/05:00am 6.9 4.7 6.2 95 0.3 ESE 7 11 4 6 1030.1 1030.1 0.0
20/04:30am 6.8 3.8 6.2 96 0.3 SE 11 15 6 8 1029.8 1029.8 0.0
20/04:00am 7.0 4.1 6.4 96 0.3 SE 11 15 6 8 1029.6 1029.6 0.0
20/03:30am 6.5 4.2 5.8 95 0.3 SE 7 9 4 5 1029.7 1029.7 0.0
20/03:00am 7.1 4.6 6.4 95 0.3 SE 9 15 5 8 1029.9 1029.9 0.0
20/02:30am 6.6 4.3 5.9 95 0.3 SE 7 11 4 6 1029.8 1029.8 0.0
20/02:00am 7.0 4.8 6.1 94 0.4 SE 7 9 4 5 1029.8 1029.8 0.0
20/01:30am 7.6 5.1 6.7 94 0.4 SE 9 15 5 8 1029.7 1029.7 0.0
20/01:00am 7.6 5.2 7.0 96 0.3 SE 9 13 5 7 1029.7 1029.7 0.0
20/12:30am 6.8 4.2 6.2 96 0.3 SE 9 11 5 6 1029.7 1029.7 0.0
20/12:00am 7.4 5.0 6.8 96 0.3 SE 9 11 5 6 1029.7 1029.7 0.0
 
Date/Time
WST
Temp
°C
App
Temp
°C
Dew
Point
Rel
Hum
%
Delta-T
°C
Wind Press
QNH
hPa
Press
MSL
hPa
Rain
since 9 am
mm
Dir
 
Spd
km/h
Gust
km/h
Spd
kts
Gust
kts
19/11:30pm 7.2 5.1 6.5 95 0.3 SE 7 9 4 5 1029.7 1029.7 0.0
19/11:00pm 7.8 6.3 6.9 94 0.4 E 4 6 2 3 1029.6 1029.6 0.0
19/10:30pm 8.2 6.3 6.7 90 0.7 SE 6 9 3 5 1029.6 1029.6 0.0
19/10:00pm 8.7 6.8 6.8 88 0.9 SE 6 9 3 5 1029.6 1029.6 0.0
19/09:30pm 9.5 7.2 7.3 86 1.0 SE 9 13 5 7 1029.6 1029.6 0.0
19/09:00pm 9.7 7.3 7.1 84 1.2 SE 9 15 5 8 1029.4 1029.4 0.0

Other Formats:

Comma delimited format used in spreadsheet applications
http://www.bom.gov.au/fwo/IDW60801/IDW60801.94604.axf

JavaScript Object Notation format (JSON) in row-major order
http://www.bom.gov.au/fwo/IDW60801/IDW60801.94604.json